Time;durP1;ratioP1;P1;durP2;ratioP2;P2;SDS_P1;SDS_P2;PMS_P1;PMS_P2;Temp;Humidity;BMP_temperature;BMP_pressure;BME280_temperature;BME280_humidity;BME280_pressure;Samples;Min_cycle;Max_cycle;Signal;HPM_P1;HPM_P2
2022/03/13 00:00:52;;;;;;;;;12.75;10.25;;;;;10.28;69.90;100333.81;5060014;27;45619;-64
2022/03/13 00:03:21;;;;;;;;;9.25;8.00;;;;;10.30;69.04;100327.59;5058732;28;45535;-69
2022/03/13 00:05:49;;;;;;;;;8.75;8.75;;;;;10.32;69.42;100345.94;5074907;27;45504;-61
2022/03/13 00:08:29;;;;;;;;;10.50;9.75;;;;;10.35;69.76;100332.69;5074606;27;45350;-62
2022/03/13 00:11:04;;;;;;;;;9.50;9.50;;;;;10.39;69.47;100342.13;5070595;27;45577;-61
2022/03/13 00:13:32;;;;;;;;;9.00;9.00;;;;;10.41;68.93;100336.84;5062189;28;45571;-62
2022/03/13 00:15:59;;;;;;;;;9.25;8.25;;;;;10.39;67.71;100332.47;5070521;28;45437;-63
2022/03/13 00:18:25;;;;;;;;;9.50;8.25;;;;;10.29;68.36;100330.25;5073356;27;45558;-60
2022/03/13 00:20:51;;;;;;;;;13.25;9.75;;;;;10.31;67.96;100336.31;5075449;28;45426;-63
2022/03/13 00:23:17;;;;;;;;;10.50;9.75;;;;;10.34;68.58;100339.72;5073090;27;46492;-62
2022/03/13 00:25:42;;;;;;;;;7.75;6.50;;;;;10.32;67.80;100341.53;5073031;28;45435;-62
2022/03/13 00:28:08;;;;;;;;;10.00;9.00;;;;;10.32;67.68;100340.69;5075166;27;45402;-63
2022/03/13 00:30:35;;;;;;;;;4.33;4.33;;;;;10.35;68.42;100332.69;5065805;27;45678;-61
2022/03/13 00:33:01;;;;;;;;;8.33;7.00;;;;;10.38;68.01;100341.28;5055016;28;47293;-62
2022/03/13 00:35:27;;;;;;;;;10.00;8.75;;;;;10.42;68.10;100341.16;5054422;28;45454;-64
2022/03/13 00:37:54;;;;;;;;;10.50;7.00;;;;;10.43;67.32;100333.22;5055948;28;45460;-61
2022/03/13 00:40:20;;;;;;;;;7.25;6.50;;;;;10.42;66.59;100338.53;5074260;28;45612;-62
2022/03/13 00:42:46;;;;;;;;;6.50;6.50;;;;;10.36;66.80;100332.59;5064243;27;46016;-64
2022/03/13 00:45:11;;;;;;;;;7.75;7.00;;;;;10.35;66.79;100330.91;5054448;28;45482;-64
2022/03/13 00:47:37;;;;;;;;;8.75;8.75;;;;;10.39;67.51;100321.94;5065577;28;45495;-64
2022/03/13 00:50:04;;;;;;;;;6.50;6.50;;;;;10.44;68.96;100318.31;5055862;28;45585;-62
2022/03/13 00:52:29;;;;;;;;;10.00;9.25;;;;;10.47;65.50;100320.81;5054904;28;45482;-62
2022/03/13 00:54:54;;;;;;;;;5.25;5.25;;;;;10.47;66.91;100318.19;5062735;27;45453;-61
2022/03/13 00:57:20;;;;;;;;;5.67;5.67;;;;;10.46;65.55;100311.22;5072938;28;45521;-64
2022/03/13 00:59:45;;;;;;;;;8.75;7.50;;;;;10.47;66.36;100316.41;5074835;28;45497;-65
2022/03/13 01:02:13;;;;;;;;;8.00;7.00;;;;;10.51;66.91;100315.38;5068087;27;45896;-63
2022/03/13 01:04:38;;;;;;;;;4.00;4.00;;;;;10.53;67.55;100312.66;5067728;28;45573;-66
2022/03/13 01:07:04;;;;;;;;;6.67;6.67;;;;;10.56;67.65;100321.31;5057891;28;45334;-63
2022/03/13 01:09:29;;;;;;;;;4.00;4.00;;;;;10.59;66.56;100315.09;5058322;28;45429;-62
2022/03/13 01:11:55;;;;;;;;;5.67;5.00;;;;;10.63;68.00;100314.03;5059482;28;46138;-64
2022/03/13 01:14:22;;;;;;;;;6.33;6.33;;;;;10.66;65.95;100299.91;5085235;27;45369;-62
2022/03/13 01:16:47;;;;;;;;;7.00;4.67;;;;;10.64;65.88;100299.09;5076407;27;45428;-61
2022/03/13 01:19:12;;;;;;;;;7.00;7.00;;;;;10.67;66.86;100305.09;5076175;28;45417;-63
2022/03/13 01:21:41;;;;;;;;;7.00;7.00;;;;;10.69;65.85;100297.13;5069409;27;46453;-62
2022/03/13 01:24:09;;;;;;;;;7.00;5.33;;;;;10.71;67.11;100295.31;5057892;28;45464;-63
2022/03/13 01:26:37;;;;;;;;;7.00;5.00;;;;;10.73;66.56;100296.09;5066678;28;45619;-62
2022/03/13 01:29:11;;;;;;;;;5.67;5.67;;;;;10.71;65.94;100288.25;5057848;28;45651;-62
2022/03/13 01:31:39;;;;;;;;;4.00;4.00;;;;;10.74;65.27;100289.91;5076605;27;46215;-62
2022/03/13 01:34:06;;;;;;;;;9.00;7.00;;;;;10.74;66.47;100282.88;5077710;27;45565;-62
2022/03/13 01:36:32;;;;;;;;;5.00;5.00;;;;;10.75;65.97;100281.97;5076737;27;45461;-64
2022/03/13 01:39:00;;;;;;;;;5.00;5.00;;;;;10.74;66.43;100280.25;5066847;27;45481;-63
2022/03/13 01:41:29;;;;;;;;;7.00;7.00;;;;;10.75;66.98;100271.47;5071564;28;45940;-62
2022/03/13 01:43:59;;;;;;;;;4.67;4.67;;;;;10.78;67.31;100270.47;5077334;28;45467;-62
2022/03/13 01:46:25;;;;;;;;;4.67;4.67;;;;;10.79;66.84;100269.53;5076766;28;45403;-62
2022/03/13 01:49:03;;;;;;;;;9.00;8.00;;;;;10.81;66.91;100268.56;5077828;28;45425;-62
2022/03/13 01:51:31;;;;;;;;;4.00;4.00;;;;;10.82;65.21;100270.25;5077878;27;45635;-62
2022/03/13 01:53:58;;;;;;;;;5.00;5.00;;;;;10.80;64.52;100271.25;5077037;27;45507;-61
2022/03/13 01:56:25;;;;;;;;;5.67;5.00;;;;;10.81;65.60;100262.44;5074270;28;45441;-61
2022/03/13 01:58:53;;;;;;;;;4.67;4.67;;;;;10.80;65.35;100263.34;5073462;27;45492;-62
2022/03/13 02:01:20;;;;;;;;;5.00;5.00;;;;;10.77;65.26;100258.22;5083154;27;47298;-64
2022/03/13 02:03:45;;;;;;;;;7.00;7.00;;;;;10.76;64.77;100253.88;5058248;28;45496;-63
2022/03/13 02:06:11;;;;;;;;;6.33;6.33;;;;;10.75;65.29;100258.31;5074927;27;45440;-62
2022/03/13 02:08:40;;;;;;;;;9.00;7.33;;;;;10.73;65.99;100254.03;5075346;27;45643;-61
2022/03/13 02:11:06;;;;;;;;;5.67;5.67;;;;;10.73;66.18;100248.75;5075856;28;46352;-61
2022/03/13 02:13:34;;;;;;;;;7.00;7.00;;;;;10.73;65.64;100248.75;5075504;28;45604;-63
2022/03/13 02:15:59;;;;;;;;;4.00;4.00;;;;;10.71;65.60;100240.91;5088437;27;45502;-62
2022/03/13 02:18:24;;;;;;;;;7.33;7.33;;;;;10.69;66.30;100241.91;5061622;28;45439;-61
2022/03/13 02:20:50;;;;;;;;;7.67;7.00;;;;;10.68;65.56;100224.41;5075401;28;45514;-61
2022/03/13 02:23:27;;;;;;;;;8.25;8.25;;;;;10.66;65.92;100223.63;5074396;28;45543;-63
2022/03/13 02:25:55;;;;;;;;;6.33;6.33;;;;;10.65;65.53;100227.19;5077390;28;45474;-62
2022/03/13 02:28:24;;;;;;;;;8.00;6.33;;;;;10.63;65.27;100226.38;5077324;28;45514;-62
2022/03/13 02:30:51;;;;;;;;;4.67;4.67;;;;;10.56;65.48;100216.13;5069250;28;46239;-62
2022/03/13 02:33:20;;;;;;;;;6.33;6.33;;;;;10.58;65.97;100229.19;5076849;28;45428;-62
2022/03/13 02:35:52;;;;;;;;;7.33;7.33;;;;;10.56;65.75;100213.50;5076921;28;45430;-63
2022/03/13 02:38:17;;;;;;;;;7.33;5.33;;;;;10.54;65.65;100215.34;5077156;27;45577;-63
2022/03/13 02:40:43;;;;;;;;;6.75;6.75;;;;;10.55;66.35;100210.91;5075437;27;46164;-63
2022/03/13 02:43:08;;;;;;;;;7.67;6.33;;;;;10.54;67.05;100210.06;5075087;27;45457;-62
2022/03/13 02:45:37;;;;;;;;;7.50;7.50;;;;;10.52;65.85;100213.69;5060725;28;45367;-61
2022/03/13 02:48:05;;;;;;;;;7.00;7.00;;;;;10.50;65.67;100211.09;5074586;27;45524;-62
2022/03/13 02:50:31;;;;;;;;;9.00;7.00;;;;;10.49;65.66;100200.66;5076541;27;46195;-62
2022/03/13 02:52:56;;;;;;;;;8.00;7.25;;;;;10.49;65.23;100206.78;5076163;28;45544;-62
2022/03/13 02:55:22;;;;;;;;;8.00;7.75;;;;;10.45;64.54;100206.97;5075521;28;45485;-64
2022/03/13 02:57:48;;;;;;;;;10.00;9.25;;;;;10.44;65.40;100205.25;5058368;28;45552;-61
2022/03/13 03:00:15;;;;;;;;;7.00;7.00;;;;;10.43;65.37;100203.56;5059196;28;47753;-64
2022/03/13 03:02:42;;;;;;;;;9.50;8.50;;;;;10.41;64.97;100195.72;5062119;27;45468;-63
2022/03/13 03:05:08;;;;;;;;;8.00;8.00;;;;;10.39;64.61;100198.41;5056490;28;45540;-62
2022/03/13 03:07:35;;;;;;;;;9.00;8.25;;;;;10.39;64.78;100203.66;5059512;27;45875;-61
2022/03/13 03:10:01;;;;;;;;;9.25;9.25;;;;;10.37;65.28;100199.41;5076401;28;45445;-62
2022/03/13 03:12:27;;;;;;;;;7.00;7.00;;;;;10.35;65.26;100198.63;5074506;27;45435;-62
2022/03/13 03:14:53;;;;;;;;;8.75;8.75;;;;;10.33;65.38;100193.41;5061246;28;45560;-61
2022/03/13 03:17:18;;;;;;;;;7.67;7.67;;;;;10.34;65.82;100194.25;5075111;27;45752;-62
2022/03/13 03:19:44;;;;;;;;;6.25;6.25;;;;;10.33;64.92;100201.28;5075604;27;45426;-62
2022/03/13 03:22:10;;;;;;;;;10.00;9.00;;;;;10.27;65.35;100196.28;5056380;28;45421;-61
2022/03/13 03:24:35;;;;;;;;;8.50;8.50;;;;;10.28;64.74;100192.72;5057401;28;45373;-61
2022/03/13 03:27:00;;;;;;;;;8.00;8.00;;;;;10.28;64.96;100192.72;5055776;28;45427;-61
2022/03/13 03:29:27;;;;;;;;;4.75;4.75;;;;;10.26;64.44;100189.31;5056143;28;45953;-62
2022/03/13 03:31:54;;;;;;;;;7.75;7.75;;;;;10.25;64.76;100190.19;5055970;28;45399;-63
2022/03/13 03:34:22;;;;;;;;;10.00;6.25;;;;;10.21;64.67;100196.50;5054624;28;45567;-61
2022/03/13 03:36:50;;;;;;;;;4.50;4.50;;;;;10.22;64.67;100192.09;5056535;28;45454;-63
2022/03/13 03:39:17;;;;;;;;;8.75;8.75;;;;;10.18;63.99;100193.97;5055941;28;46399;-63
2022/03/13 03:41:45;;;;;;;;;11.25;9.00;;;;;10.17;64.31;100190.50;5062779;27;45513;-62
2022/03/13 03:44:12;;;;;;;;;10.00;9.75;;;;;10.15;65.52;100187.09;5075999;28;45484;-62
2022/03/13 03:46:38;;;;;;;;;7.00;7.00;;;;;10.15;64.38;100187.09;5074733;28;45628;-62
2022/03/13 03:49:04;;;;;;;;;8.00;7.67;;;;;10.15;64.49;100192.38;5076043;27;45532;-63
2022/03/13 03:51:29;;;;;;;;;8.33;7.00;;;;;10.13;63.60;100186.31;5067207;27;45466;-61
2022/03/13 03:53:55;;;;;;;;;9.50;8.50;;;;;10.11;64.25;100190.75;5055582;28;45464;-61
2022/03/13 03:56:20;;;;;;;;;10.00;7.25;;;;;10.08;63.97;100184.78;5058509;28;45476;-62
2022/03/13 03:58:45;;;;;;;;;8.00;8.00;;;;;10.08;63.64;100182.16;5075900;28;45517;-64
2022/03/13 04:01:11;;;;;;;;;8.75;8.00;;;;;10.07;65.18;100185.69;5073737;28;45503;-61
2022/03/13 04:03:36;;;;;;;;;6.75;6.75;;;;;10.09;65.57;100186.47;5076110;27;45408;-63
2022/03/13 04:06:01;;;;;;;;;8.25;8.25;;;;;10.09;64.04;100186.47;5056932;28;45424;-61
2022/03/13 04:08:29;;;;;;;;;8.75;8.75;;;;;10.09;64.11;100181.22;5056469;28;46138;-63
2022/03/13 04:10:55;;;;;;;;;5.75;5.00;;;;;10.08;64.93;100184.78;5063057;28;45592;-64
2022/03/13 04:13:20;;;;;;;;;8.00;8.00;;;;;10.09;64.95;100179.44;5055582;28;45437;-62
2022/03/13 04:15:45;;;;;;;;;8.00;8.00;;;;;10.11;64.78;100189.91;5054941;28;45605;-62
2022/03/13 04:18:11;;;;;;;;;7.25;6.00;;;;;10.11;63.91;100187.28;5074324;27;45932;-63
2022/03/13 04:20:36;;;;;;;;;8.25;8.00;;;;;10.11;65.23;100190.75;5063482;28;45410;-61
2022/03/13 04:23:02;;;;;;;;;10.25;7.00;;;;;10.13;64.31;100198.59;5074239;28;45422;-61
2022/03/13 04:25:28;;;;;;;;;7.75;7.75;;;;;10.14;63.58;100192.41;5075850;27;45630;-64
2022/03/13 04:27:56;;;;;;;;;12.25;9.00;;;;;10.14;64.43;100195.03;5073656;27;45946;-63
2022/03/13 04:30:21;;;;;;;;;7.00;7.00;;;;;10.14;63.53;100193.25;5053951;28;45424;-62
2022/03/13 04:32:47;;;;;;;;;6.50;6.50;;;;;10.12;63.02;100195.09;5072087;27;45652;-64
2022/03/13 04:35:13;;;;;;;;;8.00;8.00;;;;;10.13;63.40;100201.22;5063758;28;45640;-62
2022/03/13 04:37:38;;;;;;;;;8.00;8.00;;;;;10.13;62.98;100199.44;5067450;27;45372;-63
2022/03/13 04:40:04;;;;;;;;;6.00;6.00;;;;;10.12;63.47;100192.47;5057073;28;45499;-63
2022/03/13 04:42:30;;;;;;;;;8.25;7.00;;;;;10.11;62.78;100198.63;5078922;28;45457;-63
2022/03/13 04:44:56;;;;;;;;;5.50;5.50;;;;;10.13;63.23;100195.97;5068554;28;45449;-63
2022/03/13 04:47:21;;;;;;;;;8.50;7.00;;;;;10.05;62.69;100190.16;5068708;27;46306;-63
2022/03/13 04:49:46;;;;;;;;;7.00;7.00;;;;;10.07;63.37;100193.56;5079036;27;45402;-62
2022/03/13 04:52:12;;;;;;;;;8.00;5.25;;;;;10.09;63.79;100197.00;5077364;28;45885;-62
2022/03/13 04:54:37;;;;;;;;;4.67;4.67;;;;;10.10;62.83;100199.56;5077305;27;45457;-61
2022/03/13 04:57:03;;;;;;;;;4.00;4.00;;;;;10.12;62.52;100191.59;5078095;27;45448;-61
2022/03/13 04:59:28;;;;;;;;;4.33;4.00;;;;;10.14;63.02;100197.66;5076899;27;45576;-61
2022/03/13 05:01:53;;;;;;;;;4.00;4.00;;;;;10.15;62.67;100195.00;5061105;27;45378;-62
2022/03/13 05:04:19;;;;;;;;;4.50;4.50;;;;;10.17;62.87;100187.03;5078436;28;45407;-62
2022/03/13 05:06:45;;;;;;;;;3.67;3.67;;;;;10.11;62.72;100189.91;5078604;27;46349;-63
2022/03/13 05:09:11;;;;;;;;;3.00;3.00;;;;;10.11;62.25;100179.41;5078670;27;45396;-62
2022/03/13 05:11:38;;;;;;;;;4.00;3.00;;;;;10.04;62.67;100177.94;5071583;27;45521;-62
2022/03/13 05:14:04;;;;;;;;;5.33;5.33;;;;;10.07;62.44;100178.66;5070898;28;45530;-63
2022/03/13 05:16:30;;;;;;;;;2.33;2.33;;;;;10.03;61.91;100179.69;5074571;27;45561;-62
2022/03/13 05:18:56;;;;;;;;;3.67;3.67;;;;;10.04;62.12;100170.91;5063153;28;45551;-63
2022/03/13 05:21:21;;;;;;;;;4.67;3.67;;;;;10.06;61.61;100174.31;5072453;27;45744;-63
2022/03/13 05:23:46;;;;;;;;;2.33;2.33;;;;;10.05;62.05;100177.03;5075814;27;45411;-63
2022/03/13 05:26:12;;;;;;;;;4.00;4.00;;;;;10.07;61.87;100172.53;5076655;27;46008;-63
2022/03/13 05:28:37;;;;;;;;;3.00;3.00;;;;;10.08;62.24;100183.00;5078420;28;45496;-61
2022/03/13 05:31:03;;;;;;;;;2.67;2.67;;;;;10.08;61.74;100179.53;5076976;28;45394;-61
2022/03/13 05:33:30;;;;;;;;;3.00;3.00;;;;;10.07;62.12;100183.06;5076785;28;45621;-63
2022/03/13 05:35:56;;;;;;;;;4.00;4.00;;;;;10.01;60.54;100194.66;5074303;27;45397;-62
2022/03/13 05:38:21;;;;;;;;;3.00;3.00;;;;;9.99;61.30;100193.00;5063231;27;45456;-61
2022/03/13 05:40:46;;;;;;;;;5.33;4.00;;;;;9.95;61.87;100190.50;5058192;28;45379;-63
2022/03/13 05:43:12;;;;;;;;;5.00;3.50;;;;;9.99;61.30;100193.00;5061266;28;45634;-62
2022/03/13 05:45:39;;;;;;;;;4.50;3.25;;;;;9.98;61.61;100186.91;5057648;28;45496;-63
2022/03/13 05:48:15;;;;;;;;;4.67;3.00;;;;;10.00;61.36;100190.34;5065983;28;45714;-63
2022/03/13 05:50:40;;;;;;;;;5.75;5.75;;;;;10.01;60.99;100199.06;5058963;28;45602;-63
2022/03/13 05:53:06;;;;;;;;;3.00;3.00;;;;;9.98;61.10;100192.16;5061151;27;45469;-61
2022/03/13 05:55:31;;;;;;;;;3.00;3.00;;;;;9.98;60.88;100192.16;5077965;28;45683;-61
2022/03/13 05:57:58;;;;;;;;;3.00;3.00;;;;;9.98;61.41;100196.56;5077773;27;45437;-62
2022/03/13 06:00:25;;;;;;;;;3.67;3.00;;;;;9.99;61.12;100190.38;5076563;27;45457;-63
2022/03/13 06:02:51;;;;;;;;;3.00;3.00;;;;;10.00;61.16;100198.22;5069270;28;45413;-63
2022/03/13 06:05:17;;;;;;;;;3.00;3.00;;;;;10.02;61.53;100200.75;5067934;28;47322;-62
2022/03/13 06:07:44;;;;;;;;;3.00;3.00;;;;;10.04;60.75;100206.81;5075732;27;45423;-62
2022/03/13 06:10:10;;;;;;;;;2.33;2.33;;;;;10.03;60.15;100205.13;5073052;27;45511;-64
2022/03/13 06:12:36;;;;;;;;;6.00;4.00;;;;;10.03;60.90;100203.34;5057328;28;45433;-63
2022/03/13 06:15:03;;;;;;;;;3.00;3.00;;;;;10.06;61.25;100210.25;5057413;28;45979;-63
2022/03/13 06:17:29;;;;;;;;;2.00;2.00;;;;;10.05;61.27;100196.25;5076921;27;45448;-62
2022/03/13 06:19:57;;;;;;;;;2.33;2.33;;;;;10.08;60.36;100198.78;5064184;28;45577;-60
2022/03/13 06:22:25;;;;;;;;;3.00;3.00;;;;;10.10;60.22;100210.09;5064023;28;45469;-63
2022/03/13 06:24:51;;;;;;;;;3.33;3.33;;;;;10.11;60.70;100208.31;5063158;27;45564;-61
2022/03/13 06:27:18;;;;;;;;;3.00;2.00;;;;;10.10;60.40;100214.44;5064001;28;45544;-64
2022/03/13 06:29:43;;;;;;;;;2.33;2.00;;;;;10.10;60.38;100215.34;5075716;27;45456;-63
2022/03/13 06:32:09;;;;;;;;;2.67;2.33;;;;;10.11;60.62;100221.44;5063624;27;45574;-62
2022/03/13 06:34:34;;;;;;;;;3.00;2.33;;;;;10.12;59.87;100217.88;5075542;28;45503;-63
2022/03/13 06:37:00;;;;;;;;;2.00;2.00;;;;;10.13;60.38;100220.47;5073642;27;45453;-61
2022/03/13 06:39:25;;;;;;;;;3.67;3.67;;;;;10.13;60.58;100223.09;5068010;27;45439;-63
2022/03/13 06:41:51;;;;;;;;;2.00;2.00;;;;;10.13;60.92;100220.47;5074543;27;45730;-60
2022/03/13 06:44:18;;;;;;;;;3.67;3.00;;;;;10.16;60.25;100230.84;5061688;27;45513;-62
2022/03/13 06:46:43;;;;;;;;;4.00;4.00;;;;;10.18;60.82;100236.03;5064563;28;45524;-63
2022/03/13 06:49:09;;;;;;;;;3.00;2.00;;;;;10.17;60.43;100221.19;5060376;27;45417;-64
2022/03/13 06:51:37;;;;;;;;;4.67;2.67;;;;;10.20;60.29;100226.31;5062373;28;45504;-60
2022/03/13 06:54:03;;;;;;;;;2.67;2.67;;;;;10.22;60.60;100228.91;5075252;27;45919;-64
2022/03/13 06:56:29;;;;;;;;;2.00;2.00;;;;;10.24;60.65;100227.91;5075260;28;45583;-63
2022/03/13 06:58:58;;;;;;;;;3.00;3.00;;;;;10.26;61.53;100227.84;5060117;28;45425;-61
2022/03/13 07:01:24;;;;;;;;;2.00;2.00;;;;;10.26;60.22;100226.09;5073028;27;45382;-63
2022/03/13 07:03:49;;;;;;;;;3.00;3.00;;;;;10.28;60.11;100221.66;5074690;27;46083;-62
2022/03/13 07:06:14;;;;;;;;;3.00;3.00;;;;;10.27;59.50;100222.56;5076630;28;45705;-63
2022/03/13 07:08:40;;;;;;;;;2.00;2.00;;;;;10.28;59.79;100224.28;5058636;27;45457;-60
2022/03/13 07:11:05;;;;;;;;;2.00;2.00;;;;;10.30;60.80;100225.06;5063619;27;45567;-62
2022/03/13 07:13:32;;;;;;;;;3.33;2.00;;;;;10.34;59.89;100229.31;5073672;27;46364;-63
2022/03/13 07:16:03;;;;;;;;;5.33;2.33;;;;;10.35;59.41;100228.38;5056216;28;45403;-62
2022/03/13 07:18:29;;;;;;;;;1.00;1.00;;;;;10.36;59.44;100227.44;5056291;28;45454;-60
2022/03/13 07:20:55;;;;;;;;;2.00;2.00;;;;;10.39;60.13;100221.22;5055934;28;45550;-63
2022/03/13 07:23:21;;;;;;;;;2.33;2.33;;;;;10.43;58.74;100212.28;5055850;28;46162;-62
2022/03/13 07:25:48;;;;;;;;;2.00;2.00;;;;;10.44;58.90;100215.78;5054718;28;45458;-62
2022/03/13 07:28:13;;;;;;;;;3.67;3.67;;;;;10.45;59.73;100210.47;5060587;28;45531;-62
2022/03/13 07:30:38;;;;;;;;;2.00;2.00;;;;;10.48;60.16;100214.75;5067988;28;45582;-63
2022/03/13 07:33:03;;;;;;;;;3.00;3.00;;;;;10.48;58.56;100214.75;5076254;27;46287;-63
2022/03/13 07:35:29;;;;;;;;;2.00;2.00;;;;;10.41;57.66;100221.16;5073283;27;45491;-61
2022/03/13 07:37:54;;;;;;;;;4.00;3.00;;;;;10.37;58.57;100213.41;5075349;27;45473;-64
2022/03/13 07:40:20;;;;;;;;;2.67;2.67;;;;;10.35;58.47;100227.53;5095488;27;45425;-62
2022/03/13 07:42:45;;;;;;;;;5.33;4.00;;;;;10.37;58.38;100223.91;5081590;27;46222;-63
2022/03/13 07:45:11;;;;;;;;;2.00;2.00;;;;;10.38;58.42;100230.88;5062810;27;45538;-63
2022/03/13 07:47:36;;;;;;;;;3.67;3.67;;;;;10.31;56.02;100229.41;5055991;28;45390;-64
2022/03/13 07:50:03;;;;;;;;;5.33;3.33;;;;;10.28;58.68;100226.91;5074808;28;45463;-62
2022/03/13 07:52:28;;;;;;;;;3.00;3.00;;;;;10.29;57.99;100226.00;5064957;27;46181;-64
2022/03/13 07:54:53;;;;;;;;;5.00;2.00;;;;;10.31;59.04;100224.16;5075825;27;45423;-58
2022/03/13 07:57:19;;;;;;;;;2.33;2.33;;;;;10.34;58.89;100226.69;5075787;27;45307;-58
2022/03/13 07:59:45;;;;;;;;;3.00;3.00;;;;;10.33;56.73;100224.94;5070444;27;45493;-63
2022/03/13 08:02:10;;;;;;;;;18.75;16.75;;;;;10.38;59.29;100230.03;5055560;28;45516;-59
2022/03/13 08:04:36;;;;;;;;;53.00;44.50;;;;;10.37;58.40;100223.91;5069325;27;45488;-60
2022/03/13 08:07:01;;;;;;;;;8.25;8.25;;;;;10.34;58.20;100224.03;5054345;28;45519;-62
2022/03/13 08:09:27;;;;;;;;;3.00;3.00;;;;;10.43;57.87;100214.94;5072504;27;45639;-63
2022/03/13 08:11:53;;;;;;;;;3.33;3.33;;;;;10.43;57.62;100214.94;5075409;27;45998;-63
2022/03/13 08:14:19;;;;;;;;;2.00;2.00;;;;;10.46;57.63;100211.31;5077993;27;45462;-71
2022/03/13 08:16:44;;;;;;;;;4.00;4.00;;;;;10.39;57.50;100211.53;5079252;27;45462;-71
2022/03/13 08:19:10;;;;;;;;;3.00;1.67;;;;;10.43;57.05;100203.56;5082486;27;45378;-69
2022/03/13 08:21:37;;;;;;;;;3.00;3.00;;;;;10.43;57.15;100211.44;5098868;27;45472;-69
2022/03/13 08:24:07;;;;;;;;;2.33;2.33;;;;;10.50;57.53;100215.50;5085404;27;45417;-70
2022/03/13 08:26:38;;;;;;;;;3.00;3.00;;;;;10.56;59.40;100205.63;5071180;28;45488;-69
2022/03/13 08:29:03;;;;;;;;;3.00;3.00;;;;;10.62;57.69;100204.50;5058664;28;45446;-68
2022/03/13 08:31:29;;;;;;;;;3.00;3.00;;;;;10.67;58.40;100205.16;5058523;28;46224;-68
2022/03/13 08:33:54;;;;;;;;;2.00;2.00;;;;;10.68;58.00;100201.59;5059106;28;45447;-66
2022/03/13 08:36:19;;;;;;;;;3.00;3.00;;;;;10.73;57.29;100196.16;5059045;28;45346;-70
2022/03/13 08:38:45;;;;;;;;;27.50;23.75;;;;;10.75;57.59;100208.31;5058635;28;45513;-67
2022/03/13 08:41:11;;;;;;;;;1.67;1.67;;;;;10.77;56.21;100202.97;5067453;28;45564;-65
2022/03/13 08:43:36;;;;;;;;;2.33;2.33;;;;;10.81;57.31;100204.56;5070686;28;45502;-64
2022/03/13 08:46:02;;;;;;;;;9.00;9.00;;;;;10.83;57.36;100203.59;5057588;28;45581;-65
2022/03/13 08:48:28;;;;;;;;;2.33;2.33;;;;;10.86;56.39;100194.72;5057433;28;45492;-66
2022/03/13 08:50:54;;;;;;;;;5.67;3.33;;;;;10.89;55.96;100210.38;5089483;27;47205;-67
2022/03/13 08:53:19;;;;;;;;;2.00;2.00;;;;;10.90;57.67;100198.91;5077962;27;45495;-68
2022/03/13 08:55:45;;;;;;;;;3.00;3.00;;;;;10.96;57.42;100205.69;5073938;27;45414;-68
2022/03/13 08:58:10;;;;;;;;;2.33;1.00;;;;;10.97;55.63;100192.47;5078351;27;45415;-71
2022/03/13 09:00:36;;;;;;;;;2.00;2.00;;;;;11.02;55.60;100200.19;5070135;27;46132;-65
2022/03/13 09:03:01;;;;;;;;;3.33;2.00;;;;;11.04;55.71;100193.91;5058013;28;45470;-66
2022/03/13 09:05:26;;;;;;;;;2.67;2.67;;;;;11.04;55.07;100212.34;5060461;28;45500;-67
2022/03/13 09:07:52;;;;;;;;;2.00;2.00;;;;;11.05;52.87;100206.16;5076431;27;45401;-66
2022/03/13 09:10:18;;;;;;;;;2.00;1.00;;;;;11.13;54.57;100213.72;5071092;27;45461;-65
2022/03/13 09:12:43;;;;;;;;;2.00;1.00;;;;;11.13;53.55;100205.81;5078747;27;45489;-67
2022/03/13 09:15:09;;;;;;;;;1.33;1.33;;;;;11.13;53.29;100203.19;5077125;28;45524;-66
2022/03/13 09:17:35;;;;;;;;;2.00;2.00;;;;;11.20;54.33;100199.38;5070147;27;45418;-68
2022/03/13 09:20:03;;;;;;;;;2.00;2.00;;;;;11.25;51.97;100196.50;5058702;28;45418;-63
2022/03/13 09:22:30;;;;;;;;;0.67;0.67;;;;;11.33;52.42;100210.19;5057756;28;45396;-64
2022/03/13 09:24:57;;;;;;;;;1.67;1.67;;;;;11.38;53.45;100207.34;5057447;28;45365;-65
2022/03/13 09:27:24;;;;;;;;;1.00;1.00;;;;;11.42;53.60;100199.25;5056401;28;45426;-65
2022/03/13 09:29:49;;;;;;;;;11.67;7.67;;;;;11.48;55.73;100200.75;5056859;28;45355;-63
2022/03/13 09:32:14;;;;;;;;;2.33;2.33;;;;;11.55;54.30;100202.16;5062174;27;45522;-62
2022/03/13 09:34:40;;;;;;;;;1.33;1.33;;;;;11.59;55.25;100206.38;5065927;28;45411;-63
2022/03/13 09:37:05;;;;;;;;;2.00;2.00;;;;;11.66;53.55;100220.09;5077616;28;45647;-67
2022/03/13 09:39:30;;;;;;;;;2.00;1.00;;;;;11.69;53.76;100217.34;5075887;28;55260;-65
2022/03/13 09:41:56;;;;;;;;;1.00;1.00;;;;;11.72;54.25;100215.44;5077660;27;45447;-63
2022/03/13 09:44:22;;;;;;;;;1.00;1.00;;;;;11.74;53.41;100202.19;5063108;27;45557;-63
2022/03/13 09:46:48;;;;;;;;;1.33;1.33;;;;;11.68;52.71;100192.78;5057460;28;45398;-63
2022/03/13 09:49:16;;;;;;;;;1.00;1.00;;;;;11.78;52.86;100200.25;5058328;28;46085;-63
2022/03/13 09:51:41;;;;;;;;;1.00;1.00;;;;;11.80;53.38;100204.53;5057600;28;45349;-63
2022/03/13 09:54:07;;;;;;;;;2.00;2.00;;;;;11.83;53.55;100204.38;5061086;28;45754;-65
2022/03/13 09:56:34;;;;;;;;;1.67;1.67;;;;;11.85;52.05;100209.59;5058971;28;45662;-66
2022/03/13 09:58:59;;;;;;;;;3.00;3.00;;;;;11.86;54.06;100203.44;5077344;27;45959;-71
2022/03/13 10:01:24;;;;;;;;;1.00;1.00;;;;;11.79;51.67;100210.72;5072474;27;45483;-69
2022/03/13 10:03:50;;;;;;;;;2.00;2.00;;;;;11.79;52.37;100207.22;5077013;27;45667;-67
2022/03/13 10:06:15;;;;;;;;;1.33;1.00;;;;;11.77;53.24;100214.34;5077644;28;45582;-73
2022/03/13 10:08:41;;;;;;;;;1.00;1.00;;;;;11.82;53.64;100207.09;5072545;28;46549;-73
2022/03/13 10:11:07;;;;;;;;;2.00;2.00;;;;;11.85;53.50;100206.97;5074232;28;45529;-74
2022/03/13 10:13:41;;;;;;;;;3.00;1.67;;;;;11.81;52.60;100197.47;5062269;28;45423;-73
2022/03/13 10:16:08;;;;;;;;;0.67;0.67;;;;;11.85;52.39;100204.34;5057438;28;45620;-75
2022/03/13 10:18:34;;;;;;;;;1.00;1.00;;;;;11.86;53.20;100208.69;5072418;28;46255;-76
2022/03/13 10:21:16;;;;;;;;;2.00;2.00;;;;;11.91;54.40;100218.09;5069751;28;45446;-78
2022/03/13 10:23:42;;;;;;;;;1.00;1.00;;;;;11.87;53.74;100203.34;5080193;27;45419;-78
2022/03/13 10:26:08;;;;;;;;;3.33;2.33;;;;;11.89;54.01;100205.91;5077250;28;45517;-69
2022/03/13 10:28:36;;;;;;;;;2.67;1.67;;;;;11.94;52.83;100199.50;5065593;27;45533;-69
2022/03/13 10:31:02;;;;;;;;;6.00;3.00;;;;;11.94;53.73;100202.13;5065872;27;45468;-70
2022/03/13 10:33:42;;;;;;;;;2.00;2.00;;;;;11.96;53.92;100194.16;5076859;27;45387;-66
2022/03/13 10:36:08;;;;;;;;;1.00;1.00;;;;;11.98;52.99;100192.28;5076042;28;45441;-64
2022/03/13 10:38:35;;;;;;;;;2.00;2.00;;;;;12.01;54.07;100188.66;5067670;27;45572;-67
2022/03/13 10:41:01;;;;;;;;;1.00;1.00;;;;;12.03;55.31;100186.81;5056924;27;45521;-67
2022/03/13 10:43:29;;;;;;;;;3.67;3.67;;;;;12.04;53.47;100186.75;5057354;28;45485;-67
2022/03/13 10:45:56;;;;;;;;;3.33;2.67;;;;;12.02;53.57;100191.22;5056608;28;45448;-67
2022/03/13 10:48:33;;;;;;;;;3.00;3.00;;;;;11.99;54.56;100180.00;5056317;28;45677;-66
2022/03/13 10:51:04;;;;;;;;;3.33;2.67;;;;;12.02;53.90;100188.59;5056413;28;45522;-67
2022/03/13 10:53:31;;;;;;;;;1.67;1.67;;;;;12.03;54.75;100181.53;5056728;28;45451;-67
2022/03/13 10:56:13;;;;;;;;;2.00;2.00;;;;;12.06;53.76;100181.38;5056120;28;45453;-67
2022/03/13 10:58:48;;;;;;;;;2.00;1.33;;;;;12.07;54.01;100186.59;5056274;28;46480;-63
2022/03/13 11:01:19;;;;;;;;;3.00;3.00;;;;;12.09;55.02;100192.66;5072163;27;45511;-65
2022/03/13 11:03:52;;;;;;;;;2.00;2.00;;;;;12.12;54.50;100191.66;5056477;28;45505;-64
2022/03/13 11:06:19;;;;;;;;;3.00;3.00;;;;;12.13;53.99;100198.63;5056326;28;45596;-67
2022/03/13 11:08:45;;;;;;;;;3.00;3.00;;;;;12.13;54.72;100196.84;5056114;28;46642;-66
2022/03/13 11:11:15;;;;;;;;;2.33;2.00;;;;;12.10;53.49;100196.97;5056183;28;45391;-65
2022/03/13 11:13:42;;;;;;;;;3.00;3.00;;;;;12.10;54.02;100190.88;5056191;28;45523;-63
2022/03/13 11:16:10;;;;;;;;;2.00;2.00;;;;;12.06;53.01;100198.06;5056892;28;45429;-66
2022/03/13 11:18:37;;;;;;;;;1.67;1.67;;;;;12.03;53.30;100187.66;5055788;28;45931;-67
2022/03/13 11:21:06;;;;;;;;;3.00;3.00;;;;;12.05;53.19;100193.72;5055628;28;45450;-65